createdAt,value
2023-01-19T00:04:00.116Z,7.20
2023-01-19T00:09:01.896Z,6.85
2023-01-19T00:14:03.688Z,6.60
2023-01-19T00:19:05.425Z,7.10
2023-01-19T00:24:07.254Z,6.57
2023-01-19T00:29:11.177Z,7.10
2023-01-19T00:34:12.854Z,7.80
2023-01-19T00:39:14.595Z,7.60
2023-01-19T00:44:16.269Z,7.13
2023-01-19T00:49:18.571Z,6.90
2023-01-19T00:54:20.349Z,7.40
2023-01-19T00:59:22.071Z,7.28
2023-01-19T01:04:23.777Z,7.03
2023-01-19T01:09:25.466Z,7.00
2023-01-19T01:14:27.269Z,7.25
2023-01-19T01:19:29.109Z,7.22
2023-01-19T01:24:30.962Z,7.03
2023-01-19T01:29:35.293Z,6.88
2023-01-19T01:34:37.062Z,6.33
2023-01-19T01:39:38.803Z,7.00
2023-01-19T01:44:53.163Z,6.53
2023-01-19T01:50:07.796Z,6.07
2023-01-19T01:55:10.773Z,6.67
2023-01-19T02:00:13.472Z,5.97
2023-01-19T02:05:25.966Z,5.83
2023-01-19T02:10:46.587Z,6.78
2023-01-19T02:15:50.996Z,5.23
2023-01-19T02:21:01.963Z,5.40
2023-01-19T02:26:04.825Z,5.30
2023-01-19T02:31:06.919Z,5.22
2023-01-19T02:36:11.903Z,6.03
2023-01-19T02:41:20.508Z,6.07
2023-01-19T02:46:22.472Z,5.30
2023-01-19T02:51:25.022Z,5.33
2023-01-19T02:57:00.122Z,5.17
2023-01-19T03:02:18.638Z,5.30
2023-01-19T03:07:31.329Z,5.40
2023-01-19T03:12:36.144Z,5.27
2023-01-19T03:17:38.644Z,4.90
2023-01-19T03:22:40.732Z,5.20
2023-01-19T03:27:45.802Z,5.23
2023-01-19T03:32:55.434Z,4.50
2023-01-19T03:38:01.078Z,4.77
2023-01-19T03:43:04.234Z,5.13
2023-01-19T03:48:06.806Z,4.63
2023-01-19T03:53:10.086Z,4.70
2023-01-19T03:58:12.211Z,4.07
2023-01-19T04:03:16.526Z,4.07
2023-01-19T04:08:18.251Z,4.00
2023-01-19T04:13:20.168Z,3.97
2023-01-19T04:18:21.860Z,4.97
2023-01-19T04:23:24.106Z,4.30
2023-01-19T04:28:26.789Z,3.83
2023-01-19T04:33:29.527Z,4.00
2023-01-19T04:38:31.416Z,4.37
2023-01-19T04:43:33.793Z,3.93
2023-01-19T04:48:35.607Z,5.33
2023-01-19T04:53:37.458Z,4.60
2023-01-19T04:58:39.563Z,4.17
2023-01-19T05:03:41.370Z,4.23
2023-01-19T05:08:45.255Z,4.73
2023-01-19T05:13:47.355Z,5.50
2023-01-19T05:18:49.131Z,5.03
2023-01-19T05:23:50.955Z,5.27
2023-01-19T05:28:53.254Z,5.07
2023-01-19T05:33:55.219Z,5.13
2023-01-19T05:38:59.569Z,5.90
2023-01-19T05:44:01.382Z,6.17
2023-01-19T05:49:05.030Z,6.57
2023-01-19T05:54:08.643Z,5.97
2023-01-19T05:59:11.040Z,6.33
2023-01-19T06:04:12.850Z,6.50
2023-01-19T06:09:14.994Z,7.00
2023-01-19T06:14:16.778Z,7.55
2023-01-19T06:19:18.934Z,7.20
2023-01-19T06:24:20.675Z,6.93
2023-01-19T06:29:23.086Z,7.97
2023-01-19T06:34:29.051Z,6.57
2023-01-19T06:39:31.202Z,8.03
2023-01-19T06:44:33.049Z,8.30
2023-01-19T06:49:34.845Z,8.13
2023-01-19T06:54:36.745Z,13.23
2023-01-19T06:59:39.824Z,9.17
2023-01-19T07:04:41.637Z,9.10
2023-01-19T07:09:43.460Z,8.77
2023-01-19T07:14:46.073Z,8.43
2023-01-19T07:19:47.995Z,9.30
2023-01-19T07:24:50.034Z,8.85
2023-01-19T07:30:04.920Z,8.63
2023-01-19T07:35:06.976Z,9.10
2023-01-19T07:40:09.298Z,9.10
2023-01-19T07:45:11.239Z,9.07
2023-01-19T07:50:14.031Z,8.73
2023-01-19T07:55:16.086Z,8.40
2023-01-19T08:00:24.952Z,9.35
2023-01-19T08:05:29.189Z,9.00
2023-01-19T08:10:31.330Z,9.43
2023-01-19T08:15:33.197Z,8.85
2023-01-19T08:20:35.194Z,8.55
2023-01-19T08:25:39.219Z,8.80
2023-01-19T08:30:43.542Z,8.55
2023-01-19T08:35:49.027Z,8.75
2023-01-19T08:40:52.189Z,8.07
2023-01-19T08:45:55.862Z,8.20
2023-01-19T08:50:57.652Z,8.35
2023-01-19T08:56:02.601Z,8.65
2023-01-19T09:01:04.706Z,8.38
2023-01-19T09:06:07.515Z,8.88
2023-01-19T09:11:13.801Z,7.97
2023-01-19T09:16:15.881Z,9.10
2023-01-19T09:21:18.571Z,9.10
2023-01-19T09:26:22.230Z,8.55
2023-01-19T09:31:24.226Z,9.23
2023-01-19T09:36:26.036Z,8.90
2023-01-19T09:41:27.962Z,9.65
2023-01-19T09:46:40.246Z,8.38
2023-01-19T09:51:46.331Z,9.02
2023-01-19T09:56:52.379Z,9.70
2023-01-19T10:02:06.860Z,9.98
2023-01-19T10:07:24.031Z,8.02
2023-01-19T10:12:51.741Z,8.68
2023-01-19T10:18:11.975Z,8.57
2023-01-19T10:23:36.220Z,8.48
2023-01-19T10:28:38.811Z,9.50
2023-01-19T10:33:40.534Z,8.70
2023-01-19T10:38:42.717Z,8.85
2023-01-19T10:43:46.209Z,9.48
2023-01-19T10:48:50.664Z,9.43
2023-01-19T10:54:01.732Z,9.27
2023-01-19T10:59:06.586Z,8.68
2023-01-19T11:04:22.365Z,8.88
2023-01-19T11:09:24.165Z,8.23
2023-01-19T11:14:30.936Z,8.57
2023-01-19T11:19:33.844Z,8.65
2023-01-19T11:24:38.244Z,9.02
2023-01-19T11:29:40.056Z,8.70
2023-01-19T11:34:41.773Z,8.10
2023-01-19T11:39:52.344Z,8.15
2023-01-19T11:45:17.634Z,7.95
2023-01-19T11:50:25.352Z,8.20
2023-01-19T11:55:58.039Z,7.95
2023-01-19T12:01:10.642Z,7.60
2023-01-19T12:06:18.230Z,7.68
2023-01-19T12:11:26.396Z,7.68
2023-01-19T12:16:33.682Z,7.28
2023-01-19T12:21:37.349Z,6.45
2023-01-19T12:26:51.530Z,6.75
2023-01-19T12:32:16.661Z,5.82
2023-01-19T12:37:42.327Z,6.57
2023-01-19T12:42:56.438Z,6.40
2023-01-19T12:47:58.755Z,6.82
2023-01-19T12:53:02.736Z,7.07
2023-01-19T12:58:12.825Z,6.72
2023-01-19T13:03:17.581Z,7.70
2023-01-19T13:08:21.359Z,6.30
2023-01-19T13:13:37.550Z,6.65
2023-01-19T13:18:41.803Z,6.88
2023-01-19T13:23:49.951Z,6.68
2023-01-19T13:29:30.684Z,6.68
2023-01-19T13:34:57.237Z,7.15
2023-01-19T13:39:59.900Z,6.60
2023-01-19T13:45:26.314Z,6.85
2023-01-19T13:50:32.220Z,6.38
2023-01-19T13:55:34.061Z,6.45
2023-01-19T14:00:38.831Z,6.55
2023-01-19T14:05:42.457Z,7.22
2023-01-19T14:11:02.654Z,6.53
2023-01-19T14:16:23.877Z,5.90
2023-01-19T14:21:25.675Z,6.70
2023-01-19T14:26:52.812Z,5.95
2023-01-19T14:32:00.938Z,6.15
2023-01-19T14:37:04.925Z,6.80
2023-01-19T14:47:30.828Z,6.32
2023-01-19T14:52:39.257Z,6.68
2023-01-19T14:57:41.099Z,6.55
2023-01-19T15:02:43.408Z,6.63
2023-01-19T15:07:47.576Z,6.90
2023-01-19T15:12:51.998Z,6.93
2023-01-19T15:17:56.129Z,6.57
2023-01-19T15:22:58.399Z,6.60
2023-01-19T15:28:04.258Z,6.07
2023-01-19T15:33:06.336Z,6.07
2023-01-19T15:38:08.617Z,5.45
2023-01-19T15:43:11.416Z,6.40
2023-01-19T15:48:27.505Z,6.18
2023-01-19T15:53:30.657Z,6.40
2023-01-19T15:58:32.489Z,6.45
2023-01-19T16:03:34.322Z,6.60
2023-01-19T16:08:37.611Z,5.88
2023-01-19T16:13:40.193Z,7.15
2023-01-19T16:18:41.984Z,6.68
2023-01-19T16:23:45.766Z,6.60
2023-01-19T16:28:47.864Z,7.55
2023-01-19T16:33:49.784Z,6.38
2023-01-19T16:38:52.260Z,7.10
2023-01-19T16:43:55.568Z,7.28
2023-01-19T16:49:06.842Z,6.88
2023-01-19T16:54:12.290Z,7.40
2023-01-19T16:59:16.361Z,7.07
2023-01-19T17:04:22.029Z,7.50
2023-01-19T17:09:23.841Z,7.88
2023-01-19T17:14:25.817Z,7.03
2023-01-19T17:19:31.740Z,7.55
2023-01-19T17:24:33.682Z,7.47
2023-01-19T17:29:35.663Z,8.00
2023-01-19T17:34:37.594Z,8.57
2023-01-19T17:39:39.519Z,8.15
2023-01-19T17:44:42.489Z,7.38
2023-01-19T17:49:44.373Z,8.50
2023-01-19T17:54:46.746Z,7.90
2023-01-19T17:59:48.558Z,8.82
2023-01-19T18:04:53.885Z,7.82
2023-01-19T18:09:58.247Z,7.97
2023-01-19T18:15:00.899Z,7.45
2023-01-19T18:20:02.899Z,7.68
2023-01-19T18:25:05.252Z,7.65
2023-01-19T18:30:07.963Z,7.57
2023-01-19T18:35:09.968Z,7.10
2023-01-19T18:40:12.481Z,7.50
2023-01-19T18:45:15.258Z,7.80
2023-01-19T18:50:20.089Z,7.45
2023-01-19T18:55:22.529Z,8.00
2023-01-19T19:00:24.519Z,7.38
2023-01-19T19:05:26.550Z,7.90
2023-01-19T19:10:28.543Z,7.82
2023-01-19T19:15:35.134Z,7.75
2023-01-19T19:20:40.503Z,7.63
2023-01-19T19:25:42.760Z,8.30
2023-01-19T19:30:44.802Z,8.20
2023-01-19T19:35:50.544Z,8.25
2023-01-19T19:40:54.812Z,9.82
2023-01-19T19:46:01.875Z,9.52
2023-01-19T19:51:17.512Z,10.43
2023-01-19T19:56:22.423Z,9.63
2023-01-19T20:01:29.447Z,8.93
2023-01-19T20:06:37.591Z,9.80
2023-01-19T20:11:40.515Z,10.73
2023-01-19T20:16:42.658Z,9.55
2023-01-19T20:21:44.710Z,10.35
2023-01-19T20:26:50.417Z,10.13
2023-01-19T20:31:57.567Z,9.82
2023-01-19T20:36:59.713Z,9.27
2023-01-19T20:42:02.429Z,10.02
2023-01-19T20:47:06.670Z,10.68
2023-01-19T20:52:08.840Z,9.80
2023-01-19T20:57:10.934Z,9.57
2023-01-19T21:02:15.183Z,10.10
2023-01-19T21:07:17.286Z,10.00
2023-01-19T21:12:21.570Z,10.25
2023-01-19T21:17:23.662Z,10.77
2023-01-19T21:22:26.045Z,9.43
2023-01-19T21:27:28.060Z,9.73
2023-01-19T21:32:30.140Z,9.32
2023-01-19T21:37:32.348Z,9.65
2023-01-19T21:42:34.380Z,9.30
2023-01-19T21:47:36.915Z,9.77
2023-01-19T21:52:41.713Z,10.38
2023-01-19T21:57:43.919Z,8.57
2023-01-19T22:02:58.524Z,9.30
2023-01-19T22:08:06.588Z,11.02
2023-01-19T22:13:12.522Z,10.32
2023-01-19T22:18:15.719Z,9.07
2023-01-19T22:23:17.826Z,9.45
2023-01-19T22:28:19.837Z,9.35
2023-01-19T22:33:21.843Z,8.82
2023-01-19T22:38:23.773Z,9.45
2023-01-19T22:43:25.858Z,8.52
2023-01-19T22:48:28.082Z,9.20
2023-01-19T22:53:34.374Z,9.45
2023-01-19T22:58:37.397Z,9.68
2023-01-19T23:03:41.019Z,9.00
2023-01-19T23:08:43.997Z,9.02
2023-01-19T23:13:46.611Z,9.82
2023-01-19T23:18:52.825Z,9.40
2023-01-19T23:24:00.997Z,8.68
2023-01-19T23:29:04.000Z,9.10
2023-01-19T23:34:08.863Z,9.68
2023-01-19T23:39:17.292Z,8.80
2023-01-19T23:44:22.115Z,9.68
2023-01-19T23:49:25.130Z,9.85
2023-01-19T23:54:27.223Z,9.40
2023-01-19T23:59:29.102Z,9.05
